OPRN/ISB METAR and TAF weather

Enter ICAO airport designator
Station Type Date Time Source
OPRN METAR 2020/09/06 07:55 UTC NOAA

OPRN 060755Z METAR OPSK 060800Z 00000KT 4000 HZ NSC 38/26 Q1001 NOSIG


Station Type Date Time Source
OPRN Decoded METAR 2020/09/06 07:55 UTC NOAA

Islamabad Airport, Pakistan (OPRN) 33-37N 073-06E 508M
Sep 06, 2020 - 03:55 AM EDT / 2020.09.06 0755 UTC
Wind: Calm:0
Visibility: 2 mile(s):0
Weather: haze
Temperature: 100 F (38 C)
Heat index: 118.4 F (48.0 C):1
Dew Point: 78 F (26 C)
Relative Humidity: 50%
Pressure (altimeter): 29.56 in. Hg (1001 hPa)
ob: OPRN 060755Z METAR OPSK 060800Z 00000KT 4000 HZ NSC 38/26 Q1001 NOSIG
cycle: 8

Station Type Date Time Source
OPRN TAF 2019/05/15 18:06 UTC NOAA

TAF OPRN 151530Z 1518/1624 13010KT 7000 SCT040 SCT100
TEMPO 1518/1521 13010G25KT 5000 VCTS FEW030TCU/CB SCT040 BKN100
BECMG 1603/1605 23010KT 9999 FEW040

Example: see airport list